Latest Weather Observations for Bankstown

IDN60801

Issued at 1:53 am EDT Friday 29 January 2021 (issued every 10 minutes, with the page automatically refreshed every 10 minutes)

About weather observations | Map of weather stations | Latest weather observations for NSW | Other Formats
Station Details ID: 066137 Name: BANKSTOWN AIRPORT AWS Lat: -33.92 Lon: 150.98 Height: 7.2 m
Data from the previous 72 hours. | See also: Recent months at Bankstown
Date/Time
EDT
Temp
°C
App
Temp
°C
Dew
Point
°C
Rel
Hum
%
Delta-T
°C
Wind Press
QNH
hPa
Press
MSL
hPa
Rain since
9am
mm
Dir  Spd
km/h
Gust
km/h
Spd
kts
Gust
kts
29/01:30am 19.2 20.6 17.9 92 0.8 WSW 7 9 4 5 1019.5 1019.5 4.2
29/01:00am 19.1 20.5 17.8 92 0.8 WSW 7 9 4 5 1019.4 1019.4 4.2
29/12:30am 19.3 20.6 17.6 90 1.0 SSW 7 9 4 5 1019.8 1019.8 4.2
29/12:00am 19.4 20.0 17.7 90 1.0 SSE 11 13 6 7 1020.1 1020.1 4.2
 
Date/Time
EDT
Temp
°C
App
Temp
°C
Dew
Point
°C
Rel
Hum
%
Delta-T
°C
Wind Press
QNH
hPa
Press
MSL
hPa
Rain since
9am
mm
Dir  Spd
km/h
Gust
km/h
Spd
kts
Gust
kts
28/11:30pm 18.8 20.1 17.1 90 1.0 S 6 9 3 5 1020.5 1020.5 4.2
28/11:00pm 18.8 19.2 17.3 91 0.9 SSE 11 17 6 9 1020.6 1020.6 4.2
28/10:30pm 18.8 17.2 17.5 92 0.8 SE 22 30 12 16 1020.9 1020.9 4.2
28/10:27pm 18.7 17.4 17.2 91 0.9 SE 20 28 11 15 1020.9 1020.9 4.2
28/10:11pm 18.9 18.4 17.7 93 0.7 SE 17 24 9 13 1021.0 1021.0 4.2
28/10:00pm 18.9 19.1 17.7 93 0.7 SE 13 20 7 11 1021.1 1021.1 4.0
28/09:51pm 18.7 19.6 17.5 93 0.7 ESE 9 15 5 8 1021.1 1021.1 4.0
28/09:39pm 18.9 19.1 17.6 92 0.8 SE 13 17 7 9 1021.0 1021.0 3.4
28/09:30pm 18.7 19.2 17.4 92 0.8 SE 11 15 6 8 1020.8 1020.8 2.6
28/09:11pm 18.6 17.9 17.4 93 0.7 SE 17 22 9 12 1021.0 1021.0 2.4
28/09:00pm 18.4 17.6 17.1 92 0.8 SE 17 26 9 14 1021.0 1021.0 2.4
28/08:30pm 18.6 18.6 17.3 92 0.8 SE 13 15 7 8 1021.0 1021.0 2.0
28/08:28pm 18.6 19.0 17.3 92 0.8 SE 11 15 6 8 1021.0 1021.0 2.0
28/08:15pm 18.5 19.2 17.0 91 0.9 S 9 15 5 8 1020.9 1020.9 1.2
28/08:05pm 18.6 18.6 17.1 91 0.9 S 13 17 7 9 1020.8 1020.8 1.2
28/08:00pm 18.7 18.7 17.2 91 0.9 S 13 17 7 9 1020.7 1020.7 1.2
28/07:44pm 18.9 18.6 17.4 91 0.9 SSE 15 22 8 12 1020.7 1020.7 1.2
28/07:32pm 19.0 17.9 17.3 90 1.0 SSE 19 28 10 15 1020.6 1020.6 1.0
28/07:30pm 19.0 17.9 17.3 90 1.0 SSE 19 28 10 15 1020.5 1020.5 0.8
28/07:25pm 18.9 17.7 17.0 89 1.1 SSE 19 26 10 14 1020.4 1020.4 0.8
28/07:00pm 19.9 15.7 16.2 79 2.2 SE 33 44 18 24 1020.1 1020.1 0.6
28/06:30pm 20.9 17.7 16.3 75 2.8 SE 28 37 15 20 1019.7 1019.7 0.6
28/06:00pm 21.3 18.4 15.2 68 3.6 SSE 24 30 13 16 1019.7 1019.7 0.6
28/05:30pm 21.3 19.7 16.0 72 3.2 SSE 19 28 10 15 1019.8 1019.8 0.6
28/05:00pm 19.9 17.7 16.0 78 2.3 S 22 32 12 17 1020.1 1020.1 0.6
28/04:30pm 20.4 18.9 16.8 80 2.2 SSE 20 32 11 17 1020.2 1020.2 0.6
28/04:00pm 20.7 18.2 16.1 75 2.8 SE 24 37 13 20 1020.1 1020.1 0.6
28/03:30pm 22.8 19.1 14.9 61 4.7 SSE 28 35 15 19 1020.1 1020.1 0.4
28/03:00pm 22.7 19.0 15.0 61 4.6 SSE 28 37 15 20 1020.3 1020.3 0.4
28/02:30pm 22.9 18.9 15.2 62 4.6 ESE 30 39 16 21 1020.5 1020.5 0.4
28/02:00pm 23.2 19.6 14.2 57 5.3 SE 26 32 14 17 1020.7 1020.7 0.4
28/01:30pm 22.8 19.0 13.6 56 5.3 SSE 26 33 14 18 1020.9 1020.9 0.4
28/01:00pm 22.2 17.6 13.5 57 5.0 SSE 30 37 16 20 1021.0 1021.0 0.4
28/12:30pm 21.7 18.3 14.8 65 4.1 SE 26 37 14 20 1021.4 1021.4 0.4
28/12:00pm 20.8 17.6 16.2 75 2.8 SSE 28 41 15 22 1021.6 1021.6 0.4
28/11:31am 19.9 17.5 17.3 85 1.6 SSE 26 32 14 17 1021.7 1021.7 0.4
28/11:30am 19.7 17.2 17.1 85 1.6 SSE 26 32 14 17 1021.7 1021.7 0.4
28/11:06am 19.4 17.2 17.9 91 0.9 SE 26 35 14 19 1021.6 1021.6 0.4
28/11:00am 19.2 16.5 17.5 90 1.0 SE 28 35 15 19 1021.5 1021.5 0.4
28/10:41am 19.2 17.2 17.5 90 1.0 SE 24 35 13 19 1021.4 1021.4 0.4
28/10:30am 19.3 16.5 17.4 89 1.2 SE 28 35 15 19 1021.4 1021.4 0.4
28/10:24am 19.7 16.6 17.5 87 1.3 SE 30 46 16 25 1021.3 1021.3 0.4
28/10:15am 20.3 16.9 15.9 76 2.6 SE 28 46 15 25 1021.2 1021.2 0.4
28/10:00am 20.1 16.3 15.7 76 2.6 SE 30 41 16 22 1021.2 1021.2 0.4
28/09:35am 19.5 17.8 17.1 86 1.5 SE 22 32 12 17 1020.9 1020.9 0.4
28/09:30am 19.4 17.2 17.0 86 1.5 SE 24 35 13 19 1020.9 1020.9 0.4
28/09:15am 19.3 16.4 17.1 87 1.3 SE 28 37 15 20 1020.9 1020.9 0.4
28/09:14am 19.3 16.4 17.1 87 1.3 SE 28 37 15 20 1020.9 1020.9 0.4
28/09:00am 19.4 15.8 17.2 87 1.3 SE 32 44 17 24 1020.8 1020.8 5.6
28/08:57am 19.4 15.7 17.0 86 1.5 SE 32 44 17 24 1020.8 1020.8 5.6
28/08:30am 20.5 18.5 16.5 78 2.4 SSE 22 33 12 18 1020.5 1020.5 5.0
28/08:00am 21.2 18.8 16.4 74 2.9 SE 24 33 13 18 1020.3 1020.3 5.0
28/07:30am 21.1 19.8 15.9 72 3.1 SE 17 22 9 12 1019.8 1019.8 5.0
28/07:00am 20.9 20.5 16.3 75 2.8 SSE 13 20 7 11 1019.6 1019.6 5.0
28/06:30am 20.5 18.6 16.7 79 2.3 SE 22 32 12 17 1019.3 1019.3 5.0
28/06:00am 20.6 19.3 15.8 74 2.9 SSE 17 30 9 16 1019.0 1019.0 5.0
28/05:30am 20.2 18.9 15.8 76 2.6 SSE 17 24 9 13 1018.6 1018.6 5.0
28/05:00am 20.4 19.2 16.0 76 2.6 SE 17 26 9 14 1018.2 1018.2 5.0
28/04:30am 20.4 19.1 15.8 75 2.7 SSE 17 22 9 12 1018.1 1018.1 5.0
28/04:00am 20.3 19.7 16.7 80 2.2 SSE 15 20 8 11 1017.9 1017.9 5.0
28/03:30am 19.7 20.0 16.9 84 1.7 S 11 17 6 9 1018.1 1018.1 5.0
28/03:00am 19.5 19.0 16.9 85 1.6 SSE 15 20 8 11 1018.3 1018.3 5.0
28/02:39am 19.2 18.8 17.2 88 1.2 SSE 15 22 8 12 1018.3 1018.3 5.0
28/02:30am 19.1 18.0 17.2 89 1.2 SSE 19 30 10 16 1018.4 1018.4 5.0
28/02:01am 19.6 18.7 17.7 89 1.2 SSE 19 26 10 14 1018.4 1018.4 5.0
28/02:00am 19.5 18.5 17.6 89 1.2 SSE 19 26 10 14 1018.4 1018.4 5.0
28/01:30am 19.6 18.4 17.4 87 1.3 SSE 20 28 11 15 1018.3 1018.3 5.0
28/01:00am 19.7 18.3 17.1 85 1.6 SE 20 28 11 15 1018.5 1018.5 5.0
28/12:30am 19.4 18.1 16.8 85 1.6 SE 19 24 10 13 1018.6 1018.6 5.0
28/12:00am 19.3 17.8 16.7 85 1.6 SE 20 30 11 16 1018.5 1018.5 5.0
 
Date/Time
EDT
Temp
°C
App
Temp
°C
Dew
Point
°C
Rel
Hum
%
Delta-T
°C
Wind Press
QNH
hPa
Press
MSL
hPa
Rain since
9am
mm
Dir  Spd
km/h
Gust
km/h
Spd
kts
Gust
kts
27/11:43pm 19.3 17.6 17.1 87 1.3 SE 22 32 12 17 1018.6 1018.6 5.0
27/11:30pm 19.4 18.2 17.4 88 1.2 SSE 20 30 11 16 1018.7 1018.7 5.0
27/11:00pm 19.3 19.1 17.6 90 1.0 SSE 15 19 8 10 1018.5 1018.5 5.0
27/10:30pm 19.1 18.5 17.6 91 0.9 SSE 17 22 9 12 1018.6 1018.6 5.0
27/10:18pm 19.1 18.4 17.4 90 1.0 SSE 17 24 9 13 1018.7 1018.7 5.0
27/10:04pm 19.1 17.8 17.2 89 1.2 SSE 20 28 11 15 1018.6 1018.6 4.6
27/10:00pm 19.0 17.3 17.1 89 1.1 SSE 22 30 12 16 1018.6 1018.6 4.6
27/09:30pm 19.4 19.4 18.1 92 0.8 SE 15 20 8 11 1018.3 1018.3 4.6
27/09:00pm 19.3 18.5 18.0 92 0.8 SE 19 28 10 15 1017.8 1017.8 4.2
27/08:30pm 19.4 20.2 18.1 92 0.8 SSE 11 15 6 8 1017.5 1017.5 3.4
27/08:00pm 19.3 20.3 17.8 91 0.9 S 9 15 5 8 1017.2 1017.2 1.6
27/07:55pm 19.3 20.3 17.8 91 0.9 S 9 11 5 6 1017.1 1017.1 1.6
27/07:44pm 19.3 20.7 17.8 91 0.9 SSW 7 9 4 5 1017.0 1017.0 1.4
27/07:30pm 19.3 19.8 17.4 89 1.2 SSW 11 17 6 9 1016.7 1016.7 1.0
27/07:05pm 19.5 19.1 17.1 86 1.5 SSW 15 20 8 11 1016.4 1016.4 0.4
27/07:00pm 19.6 19.5 17.0 85 1.6 SSW 13 20 7 11 1016.3 1016.3 0.4
27/06:30pm 20.4 19.5 16.8 80 2.2 S 17 28 9 15 1015.6 1015.6 0.2
27/06:00pm 20.4 19.5 16.8 80 2.2 S 17 22 9 12 1015.3 1015.3 0.2
27/05:30pm 20.7 20.0 17.3 81 2.1 S 17 28 9 15 1015.0 1015.0 0.2
27/05:00pm 20.8 19.4 17.0 79 2.3 S 20 28 11 15 1014.8 1014.8 0.2
27/04:30pm 21.8 20.8 16.5 72 3.2 SSW 17 26 9 14 1014.8 1014.8 0.0
27/04:00pm 21.3 18.9 16.5 74 2.9 S 24 43 13 23 1014.8 1014.8 0.0
27/03:30pm 21.6 20.1 16.8 74 2.9 S 20 32 11 17 1014.8 1014.8 0.0
27/03:00pm 22.1 18.9 16.4 70 3.5 S 28 39 15 21 1014.7 1014.7 0.0
27/02:30pm 22.1 19.0 16.6 71 3.3 S 28 37 15 20 1014.5 1014.5 0.0
27/02:00pm 22.9 19.7 16.4 67 4.0 S 28 37 15 20 1014.2 1014.2 0.0
27/01:30pm 23.6 20.7 17.1 67 4.0 S 28 33 15 18 1013.8 1013.8 0.0
27/01:00pm 23.2 21.4 17.0 68 3.8 S 22 32 12 17 1013.6 1013.6 0.0
27/12:30pm 23.2 21.2 17.4 70 3.6 S 24 33 13 18 1013.7 1013.7 0.0
27/12:00pm 22.8 21.1 17.3 71 3.4 SSE 22 37 12 20 1013.6 1013.6 0.0
27/11:30am 22.5 20.1 17.4 73 3.1 S 26 35 14 19 1013.5 1013.5 0.0
27/11:00am 22.3 19.7 17.7 75 2.9 SSE 28 35 15 19 1013.2 1013.2 0.0
27/10:30am 22.6 20.4 17.9 75 2.9 S 26 43 14 23 1012.8 1012.8 0.0
27/10:00am 22.4 21.0 18.0 76 2.7 S 22 30 12 16 1012.5 1012.5 0.0
27/09:30am 22.6 21.9 18.2 76 2.8 S 19 28 10 15 1012.2 1012.2 0.0
27/09:00am 22.6 22.0 18.4 77 2.6 S 19 28 10 15 1011.8 1011.8 0.0
27/08:30am 22.2 21.2 18.0 77 2.6 S 20 28 11 15 1011.3 1011.3 0.0
27/08:00am 22.3 21.4 18.1 77 2.6 S 20 28 11 15 1011.0 1011.0 0.0
27/07:30am 22.0 21.2 18.0 78 2.5 S 19 30 10 16 1010.4 1010.4 0.0
27/07:00am 21.9 20.1 17.9 78 2.5 S 24 37 13 20 1009.7 1009.7 0.0
27/06:42am 22.0 22.0 18.0 78 2.5 S 15 24 8 13 1009.4 1009.4 0.0
27/06:30am 22.0 22.0 18.2 79 2.4 S 15 22 8 12 1009.1 1009.1 0.0
27/06:00am 21.9 20.2 18.1 79 2.4 S 24 33 13 18 1008.6 1008.6 0.0
27/05:30am 22.2 21.0 18.4 79 2.4 S 22 35 12 19 1007.9 1007.9 0.0
27/05:00am 22.4 21.5 19.0 81 2.2 S 22 30 12 16 1007.3 1007.3 0.0
27/04:30am 22.6 22.2 19.4 82 2.0 S 20 30 11 16 1007.0 1007.0 0.0
27/04:00am 23.3 22.5 20.1 82 2.1 SSE 24 33 13 18 1006.6 1006.6 0.0
27/03:44am 23.7 23.8 20.4 82 2.1 S 20 30 11 16 1006.5 1006.5 0.0
27/03:30am 24.0 24.1 20.3 80 2.4 S 20 33 11 18 1006.4 1006.4 0.0
27/03:00am 24.4 24.7 20.5 79 2.5 SSE 19 28 10 15 1006.3 1006.3 0.0
27/02:30am 24.6 25.3 20.5 78 2.7 SSE 17 30 9 16 1006.3 1006.3 0.0
27/02:00am 24.4 26.2 20.3 78 2.7 S 11 15 6 8 1006.4 1006.4 0.0
27/01:47am 24.4 24.7 20.5 79 2.5 SSE 19 30 10 16 1006.1 1006.1 0.0
27/01:30am 24.3 25.8 20.6 80 2.4 SSE 13 20 7 11 1005.9 1005.9 0.0
27/01:00am 24.2 24.6 20.7 81 2.3 SSE 19 24 10 13 1005.8 1005.8 0.0
27/12:53am 24.2 24.1 20.7 81 2.3 SSE 22 32 12 17 1005.5 1005.5 0.0
27/12:30am 24.0 24.1 19.9 78 2.6 SSE 19 32 10 17 1005.7 1005.7 0.0
27/12:00am 24.0 23.0 19.7 77 2.8 SE 24 32 13 17 1005.2 1005.2 0.0
 
Date/Time
EDT
Temp
°C
App
Temp
°C
Dew
Point
°C
Rel
Hum
%
Delta-T
°C
Wind Press
QNH
hPa
Press
MSL
hPa
Rain since
9am
mm
Dir  Spd
km/h
Gust
km/h
Spd
kts
Gust
kts
26/11:30pm 25.5 24.1 18.9 67 4.2 ESE 24 32 13 17 1004.7 1004.7 0.0
26/11:00pm 26.1 26.9 19.0 65 4.6 SSE 13 19 7 10 1005.4 1005.4 0.0
26/10:30pm 26.4 25.0 18.8 63 4.9 SSE 24 30 13 16 1005.0 1005.0 0.0
26/10:00pm 27.4 26.5 18.1 57 5.9 S 20 28 11 15 1004.6 1004.6 0.0
26/09:30pm 27.9 29.0 19.7 61 5.3 S 13 17 7 9 1003.7 1003.7 0.0
26/09:00pm 30.0 31.3 18.4 49 7.5 SSW 9 13 5 7 1003.3 1003.3 0.0
26/08:30pm 30.7 31.7 17.7 45 8.3 SW 9 13 5 7 1002.5 1002.5 0.0
26/08:00pm 31.9 32.4 16.6 39 9.7 S 9 11 5 6 1001.4 1001.4 0.0
26/07:30pm 32.3 31.1 16.2 38 10.1 NE 17 28 9 15 1000.3 1000.3 0.0
26/07:00pm 32.9 31.9 16.7 38 10.3 NE 17 22 9 12 999.8 999.8 0.0
26/06:30pm 33.3 31.9 16.6 36 10.6 ENE 19 26 10 14 999.5 999.5 0.0
26/06:00pm 34.4 32.7 15.8 33 11.7 E 19 24 10 13 999.2 999.2 0.0
26/05:30pm 35.5 34.8 15.3 30 12.7 E 13 17 7 9 999.2 999.2 0.0
26/05:00pm 37.7 35.2 10.9 20 16.0 W 15 28 8 15 999.0 999.0 0.0
26/04:30pm 38.5 36.5 11.5 20 16.2 W 13 20 7 11 998.9 998.9 0.0
26/04:00pm 39.1 37.4 11.3 19 16.7 WNW 11 19 6 10 998.8 998.8 0.0
26/03:30pm 38.3 36.0 10.6 19 16.4 WSW 13 20 7 11 998.9 998.9 0.0
26/03:00pm 38.6 35.9 11.6 20 16.3 W 17 28 9 15 999.1 999.1 0.0
26/02:30pm 39.5 37.3 10.8 18 17.1 NNW 13 26 7 14 999.2 999.2 0.0
26/02:00pm 39.6 37.4 10.8 18 17.3 NW 13 19 7 10 999.3 999.3 0.0
26/01:30pm 37.6 34.3 10.8 20 15.9 N 19 28 10 15 999.7 999.7 0.0
26/01:00pm 37.9 35.8 11.1 20 16.0 NW 13 30 7 16 1000.2 1000.2 0.0
26/12:30pm 37.0 34.7 11.8 22 15.1 NNW 15 26 8 14 1000.6 1000.6 0.0
26/12:00pm 36.8 35.1 13.5 24 14.3 NW 15 26 8 14 1000.9 1000.9 0.0
26/11:30am 36.0 33.9 13.5 26 13.8 N 17 26 9 14 1001.2 1001.2 0.0
26/11:00am 34.6 32.4 13.4 28 12.9 NNW 17 28 9 15 1001.7 1001.7 0.0
26/10:30am 34.5 33.4 14.4 30 12.4 NW 13 19 7 10 1001.9 1001.9 0.0
26/10:00am 32.5 31.8 15.5 36 10.6 NNW 13 20 7 11 1002.2 1002.2 0.0
26/09:30am 30.4 30.7 17.1 44 8.4 NNW 11 17 6 9 1002.4 1002.4 0.0
26/09:00am 28.3 29.7 18.7 56 6.2 NW 9 15 5 8 1002.7 1002.7 0.0
26/08:30am 26.5 28.3 19.6 66 4.5 WNW 9 11 5 6 1002.8 1002.8 0.0
26/08:00am 24.3 27.2 19.8 76 2.9 WNW 4 11 2 6 1002.7 1002.7 0.0
26/07:30am 22.5 26.0 19.5 83 1.9 CALM 0 0 0 0 1002.5 1002.5 0.0
26/07:00am 21.5 25.1 19.8 90 1.1 CALM 0 0 0 0 1002.4 1002.4 0.0
26/06:30am 21.0 24.5 19.5 91 1.0 CALM 0 0 0 0 1002.2 1002.2 0.0
26/06:00am 21.0 24.5 19.5 91 1.0 CALM 0 0 0 0 1002.1 1002.1 0.0
26/05:30am 21.0 24.4 19.3 90 1.1 CALM 0 0 0 0 1001.9 1001.9 0.0
26/05:00am 21.3 24.8 19.6 90 1.1 CALM 0 0 0 0 1001.6 1001.6 0.0
26/04:30am 21.7 25.2 19.6 88 1.3 CALM 0 0 0 0 1001.7 1001.7 0.0
26/04:00am 21.9 25.4 19.6 87 1.5 CALM 0 0 0 0 1001.8 1001.8 0.0
26/03:30am 22.2 25.6 19.4 84 1.8 CALM 0 0 0 0 1002.1 1002.1 0.0
26/03:00am 22.7 26.2 19.5 82 2.1 CALM 0 0 0 0 1002.4 1002.4 0.0
26/02:30am 23.3 25.8 19.9 81 2.2 NE 6 7 3 4 1002.7 1002.7 0.0
26/02:00am 23.5 26.1 20.0 81 2.3 NE 6 7 3 4 1003.0 1003.0 0.0

Other formats

Comma delimited format used in spreadsheet applications
http://www.bom.gov.au/fwo/IDN60801/IDN60801.94765.axf

JavaScript Object Notation format (JSON) in row-major order
http://www.bom.gov.au/fwo/IDN60801/IDN60801.94765.json

Data quality

Most of these data are generated automatically and are frequently updated. Quality checks on data are not normally performed. It is possible for incorrect values to appear. Refer to information at About Latest Weather Observations and please check the disclaimer before using these data.